createdAt,value
2023-04-09T00:01:18.899Z,9.87
2023-04-09T00:03:45.504Z,10.37
2023-04-09T00:06:12.475Z,10.80
2023-04-09T00:08:38.861Z,11.67
2023-04-09T00:11:05.718Z,11.10
2023-04-09T00:13:39.019Z,10.97
2023-04-09T00:16:06.672Z,12.13
2023-04-09T00:18:33.454Z,11.43
2023-04-09T00:20:59.871Z,12.17
2023-04-09T00:23:26.849Z,10.67
2023-04-09T00:25:53.240Z,12.77
2023-04-09T00:28:20.042Z,11.50
2023-04-09T00:30:46.769Z,12.70
2023-04-09T00:33:13.156Z,12.33
2023-04-09T00:35:39.913Z,13.43
2023-04-09T00:38:06.286Z,13.60
2023-04-09T00:40:32.978Z,11.97
2023-04-09T00:42:59.425Z,11.83
2023-04-09T00:45:25.943Z,11.67
2023-04-09T00:47:52.467Z,12.97
2023-04-09T00:50:19.393Z,10.97
2023-04-09T00:52:45.927Z,11.20
2023-04-09T00:55:12.797Z,11.73
2023-04-09T00:57:39.234Z,11.40
2023-04-09T01:00:07.752Z,10.40
2023-04-09T01:02:34.692Z,11.50
2023-04-09T01:05:01.695Z,10.47
2023-04-09T01:07:44.627Z,10.87
2023-04-09T01:10:28.656Z,11.77
2023-04-09T01:13:08.881Z,12.73
2023-04-09T01:15:42.692Z,12.37
2023-04-09T01:18:27.801Z,12.87
2023-04-09T01:21:02.877Z,11.77
2023-04-09T01:23:35.261Z,11.90
2023-04-09T01:26:07.233Z,12.17
2023-04-09T01:28:36.886Z,12.10
2023-04-09T01:31:09.339Z,10.83
2023-04-09T01:33:38.000Z,13.33
2023-04-09T01:36:06.439Z,13.23
2023-04-09T01:38:36.213Z,13.73
2023-04-09T01:41:04.136Z,13.63
2023-04-09T01:43:31.828Z,13.20
2023-04-09T01:46:01.426Z,13.40
2023-04-09T01:48:29.729Z,13.93
2023-04-09T01:50:58.023Z,13.43
2023-04-09T01:53:28.221Z,13.80
2023-04-09T01:55:57.084Z,12.60
2023-04-09T01:58:24.850Z,15.33
2023-04-09T02:00:55.962Z,12.20
2023-04-09T02:03:29.532Z,14.83
2023-04-09T02:06:05.699Z,15.10
2023-04-09T02:08:35.318Z,14.07
2023-04-09T02:11:04.481Z,13.13
2023-04-09T02:13:34.625Z,14.40
2023-04-09T02:16:01.746Z,13.27
2023-04-09T02:18:29.393Z,14.73
2023-04-09T02:20:57.461Z,14.80
2023-04-09T02:23:24.313Z,13.53
2023-04-09T02:25:52.860Z,13.80
2023-04-09T02:28:19.623Z,14.43
2023-04-09T02:30:46.345Z,15.07
2023-04-09T02:33:12.837Z,15.43
2023-04-09T02:35:39.410Z,14.70
2023-04-09T02:38:05.854Z,15.47
2023-04-09T02:40:32.527Z,15.63
2023-04-09T02:42:59.364Z,15.57
2023-04-09T02:45:26.058Z,14.30
2023-04-09T02:47:52.448Z,16.47
2023-04-09T02:50:19.061Z,16.13
2023-04-09T02:52:47.410Z,13.70
2023-04-09T02:55:14.740Z,16.97
2023-04-09T02:57:41.871Z,14.57
2023-04-09T03:00:09.072Z,14.80
2023-04-09T03:02:35.643Z,13.90
2023-04-09T03:05:02.410Z,14.90
2023-04-09T03:07:28.841Z,15.23
2023-04-09T03:09:55.198Z,14.27
2023-04-09T03:12:22.211Z,14.10
2023-04-09T03:14:48.584Z,13.67
2023-04-09T03:17:14.996Z,14.40
2023-04-09T03:19:41.379Z,15.23
2023-04-09T03:22:07.821Z,13.03
2023-04-09T03:24:34.216Z,13.47
2023-04-09T03:27:00.619Z,12.77
2023-04-09T03:29:26.972Z,12.37
2023-04-09T03:31:53.782Z,11.57
2023-04-09T03:34:20.223Z,14.43
2023-04-09T03:36:46.907Z,12.93
2023-04-09T03:39:13.269Z,13.80
2023-04-09T03:41:39.676Z,13.50
2023-04-09T03:44:06.040Z,12.83
2023-04-09T03:46:32.529Z,13.37
2023-04-09T03:48:58.935Z,12.70
2023-04-09T03:51:25.712Z,13.73
2023-04-09T03:53:52.062Z,12.93
2023-04-09T03:56:18.484Z,12.20
2023-04-09T03:58:44.896Z,12.20
2023-04-09T04:01:11.263Z,12.10
2023-04-09T04:03:37.748Z,12.90
2023-04-09T04:06:04.273Z,12.17
2023-04-09T04:08:30.999Z,13.20
2023-04-09T04:11:03.755Z,13.10
2023-04-09T04:13:30.300Z,11.97
2023-04-09T04:15:56.794Z,12.30
2023-04-09T04:18:23.202Z,11.77
2023-04-09T04:20:49.584Z,13.37
2023-04-09T04:23:15.983Z,12.40
2023-04-09T04:25:42.560Z,15.07
2023-04-09T04:28:09.349Z,12.53
2023-04-09T04:30:35.764Z,12.33
2023-04-09T04:33:02.210Z,12.67
2023-04-09T04:35:28.673Z,12.53
2023-04-09T04:37:55.068Z,12.57
2023-04-09T04:40:21.507Z,12.47
2023-04-09T04:42:48.197Z,11.47
2023-04-09T04:45:14.554Z,13.53
2023-04-09T04:47:41.218Z,12.53
2023-04-09T04:50:08.348Z,12.40
2023-04-09T04:52:34.799Z,11.87
2023-04-09T04:55:01.176Z,12.57
2023-04-09T04:57:27.591Z,12.63
2023-04-09T04:59:53.988Z,11.70
2023-04-09T05:02:20.604Z,12.83
2023-04-09T05:04:47.096Z,13.73
2023-04-09T05:07:13.460Z,13.40
2023-04-09T05:09:40.249Z,15.97
2023-04-09T05:12:06.638Z,14.83
2023-04-09T05:14:33.388Z,15.10
2023-04-09T05:17:00.013Z,14.50
2023-04-09T05:19:26.756Z,14.33
2023-04-09T05:21:53.112Z,15.00
2023-04-09T05:24:19.890Z,15.60
2023-04-09T05:26:46.788Z,15.50
2023-04-09T05:29:13.242Z,15.87
2023-04-09T05:31:40.520Z,14.10
2023-04-09T05:34:06.995Z,17.57
2023-04-09T05:36:33.383Z,16.23
2023-04-09T05:38:59.795Z,16.40
2023-04-09T05:41:26.169Z,15.83
2023-04-09T05:43:52.884Z,15.50
2023-04-09T05:46:19.614Z,15.97
2023-04-09T05:48:46.039Z,18.87
2023-04-09T05:51:12.503Z,20.10
2023-04-09T05:53:38.896Z,21.70
2023-04-09T05:56:14.330Z,18.53
2023-04-09T05:58:40.736Z,20.13
2023-04-09T06:01:07.269Z,19.77
2023-04-09T06:03:33.944Z,20.53
2023-04-09T06:06:00.640Z,18.80
2023-04-09T06:08:27.337Z,20.90
2023-04-09T06:10:53.711Z,19.77
2023-04-09T06:13:20.337Z,21.50
2023-04-09T06:15:46.864Z,21.23
2023-04-09T06:18:13.354Z,22.07
2023-04-09T06:20:39.730Z,22.10
2023-04-09T06:23:06.180Z,20.37
2023-04-09T06:25:32.696Z,22.70
2023-04-09T06:27:59.120Z,23.60
2023-04-09T06:30:25.844Z,23.60
2023-04-09T06:32:54.973Z,21.47
2023-04-09T06:35:21.907Z,22.90
2023-04-09T06:37:48.341Z,25.83
2023-04-09T06:40:14.899Z,24.70
2023-04-09T06:42:41.444Z,21.43
2023-04-09T06:45:08.649Z,22.47
2023-04-09T06:47:36.169Z,23.67
2023-04-09T06:50:03.108Z,24.40
2023-04-09T06:52:29.536Z,24.40
2023-04-09T06:54:55.943Z,22.07
2023-04-09T06:57:22.376Z,20.63
2023-04-09T06:59:48.784Z,26.73
2023-04-09T07:02:15.649Z,26.50
2023-04-09T07:04:42.562Z,26.87
2023-04-09T07:07:09.079Z,26.27
2023-04-09T07:09:35.902Z,26.23
2023-04-09T07:12:02.274Z,24.53
2023-04-09T07:14:28.823Z,26.50
2023-04-09T07:16:55.194Z,26.43
2023-04-09T07:19:21.592Z,27.10
2023-04-09T07:21:47.960Z,26.73
2023-04-09T07:24:14.313Z,25.80
2023-04-09T07:26:41.753Z,24.60
2023-04-09T07:29:08.189Z,27.03
2023-04-09T07:31:36.005Z,25.33
2023-04-09T07:34:02.657Z,24.57
2023-04-09T07:36:29.078Z,25.67
2023-04-09T07:38:55.652Z,26.93
2023-04-09T07:41:22.153Z,25.37
2023-04-09T07:43:48.696Z,27.50
2023-04-09T07:46:21.897Z,26.93
2023-04-09T07:48:49.993Z,27.23
2023-04-09T07:51:16.719Z,27.37
2023-04-09T07:53:43.129Z,27.33
2023-04-09T07:56:09.564Z,27.50
2023-04-09T07:58:38.025Z,26.83
2023-04-09T08:01:05.649Z,26.20
2023-04-09T08:03:32.550Z,27.93
2023-04-09T08:05:59.445Z,26.13
2023-04-09T08:08:25.834Z,26.33
2023-04-09T08:10:52.215Z,26.63
2023-04-09T08:13:18.591Z,25.17
2023-04-09T08:15:45.325Z,25.17
2023-04-09T08:18:11.713Z,25.63
2023-04-09T08:20:44.698Z,26.80
2023-04-09T08:23:12.106Z,25.43
2023-04-09T08:25:39.261Z,26.60
2023-04-09T08:28:06.390Z,26.73
2023-04-09T08:30:34.380Z,24.30
2023-04-09T08:33:02.035Z,26.13
2023-04-09T08:35:31.064Z,25.27
2023-04-09T08:37:57.782Z,25.83
2023-04-09T08:40:24.236Z,24.43
2023-04-09T08:42:58.668Z,25.27
2023-04-09T08:45:25.124Z,25.83
2023-04-09T08:47:52.214Z,24.47
2023-04-09T08:50:19.652Z,25.73
2023-04-09T08:52:47.991Z,25.37
2023-04-09T08:55:14.482Z,25.17
2023-04-09T08:57:42.516Z,25.27
2023-04-09T09:00:09.347Z,24.33
2023-04-09T09:02:36.159Z,24.40
2023-04-09T09:05:02.860Z,24.60
2023-04-09T09:07:30.201Z,25.03
2023-04-09T09:10:03.529Z,23.93
2023-04-09T09:12:38.464Z,24.23
2023-04-09T09:15:27.535Z,24.70
2023-04-09T09:17:59.450Z,22.93
2023-04-09T09:20:27.101Z,24.07
2023-04-09T09:22:55.820Z,25.30
2023-04-09T09:25:24.795Z,24.20
2023-04-09T09:27:52.118Z,24.63
2023-04-09T09:30:23.871Z,22.77
2023-04-09T09:33:11.308Z,24.37
2023-04-09T09:35:48.621Z,21.33
2023-04-09T09:38:16.222Z,23.63
2023-04-09T09:40:43.153Z,22.50
2023-04-09T09:43:09.797Z,23.37
2023-04-09T09:45:41.231Z,22.37
2023-04-09T09:48:10.639Z,23.03
2023-04-09T09:50:38.238Z,21.10
2023-04-09T09:53:06.473Z,21.53
2023-04-09T09:55:34.526Z,20.43
2023-04-09T09:58:03.908Z,21.97
2023-04-09T10:00:32.775Z,21.27
2023-04-09T10:03:08.297Z,19.27
2023-04-09T10:05:37.541Z,18.80
2023-04-09T10:08:04.829Z,16.50
2023-04-09T10:10:31.541Z,14.63
2023-04-09T10:12:58.586Z,14.17
2023-04-09T10:15:28.396Z,14.80
2023-04-09T10:17:54.994Z,15.37
2023-04-09T10:20:32.423Z,14.60
2023-04-09T10:23:03.673Z,14.80
2023-04-09T10:25:30.226Z,14.67
2023-04-09T10:28:01.059Z,15.23
2023-04-09T10:30:34.760Z,16.30
2023-04-09T10:33:12.037Z,15.00
2023-04-09T10:35:38.779Z,14.87
2023-04-09T10:38:10.011Z,13.50
2023-04-09T10:40:42.565Z,14.33
2023-04-09T10:43:10.589Z,14.03
2023-04-09T10:45:41.893Z,14.50
2023-04-09T10:48:13.327Z,13.50
2023-04-09T10:50:43.150Z,13.90
2023-04-09T10:53:22.871Z,13.43
2023-04-09T10:55:51.078Z,15.00
2023-04-09T10:58:17.832Z,15.67
2023-04-09T11:00:46.514Z,14.40
2023-04-09T11:03:24.382Z,15.73
2023-04-09T11:05:59.649Z,14.03
2023-04-09T11:08:32.336Z,14.77
2023-04-09T11:11:01.099Z,14.43
2023-04-09T11:13:29.231Z,15.57
2023-04-09T11:15:57.402Z,15.50
2023-04-09T11:18:28.831Z,15.67
2023-04-09T11:21:00.874Z,15.83
2023-04-09T11:23:28.162Z,15.53
2023-04-09T11:25:55.366Z,14.73
2023-04-09T11:28:23.003Z,14.10
2023-04-09T11:30:52.989Z,14.73
2023-04-09T11:33:20.417Z,14.13
2023-04-09T11:35:47.715Z,14.60
2023-04-09T11:38:14.285Z,14.20
2023-04-09T11:40:49.882Z,13.53
2023-04-09T11:43:18.265Z,14.17
2023-04-09T11:45:48.048Z,13.80
2023-04-09T11:48:16.154Z,13.93
2023-04-09T11:50:42.812Z,13.67
2023-04-09T11:53:18.076Z,14.47
2023-04-09T11:55:47.582Z,14.47
2023-04-09T11:58:14.614Z,14.20
2023-04-09T12:00:41.387Z,14.23
2023-04-09T12:03:08.066Z,14.43
2023-04-09T12:05:35.584Z,15.07
2023-04-09T12:08:07.534Z,15.10
2023-04-09T12:10:37.155Z,14.73
2023-04-09T12:13:06.897Z,14.20
2023-04-09T12:15:36.987Z,14.37
2023-04-09T12:18:03.799Z,14.33
2023-04-09T12:20:39.577Z,14.50
2023-04-09T12:23:07.870Z,12.70
2023-04-09T12:25:39.607Z,14.23
2023-04-09T12:28:07.876Z,13.67
2023-04-09T12:30:35.037Z,14.67
2023-04-09T12:33:03.373Z,14.60
2023-04-09T12:35:29.833Z,14.53
2023-04-09T12:37:56.359Z,13.87
2023-04-09T12:40:22.936Z,13.17
2023-04-09T12:42:49.347Z,13.60
2023-04-09T12:45:17.967Z,13.80
2023-04-09T12:47:44.884Z,13.20
2023-04-09T12:50:12.489Z,13.50
2023-04-09T12:52:39.367Z,13.43
2023-04-09T12:55:06.885Z,13.60
2023-04-09T12:57:33.819Z,13.07
2023-04-09T13:00:00.750Z,13.63
2023-04-09T13:02:27.247Z,13.23
2023-04-09T13:04:53.721Z,12.93
2023-04-09T13:07:20.513Z,12.23
2023-04-09T13:09:48.393Z,11.77
2023-04-09T13:12:15.944Z,11.63
2023-04-09T13:14:44.958Z,11.37
2023-04-09T13:17:11.397Z,12.67
2023-04-09T13:19:37.981Z,11.63
2023-04-09T13:22:07.754Z,11.77
2023-04-09T13:24:38.290Z,10.90
2023-04-09T13:27:05.835Z,10.30
2023-04-09T13:29:32.311Z,9.97
2023-04-09T13:31:58.775Z,9.80
2023-04-09T13:34:25.284Z,10.30
2023-04-09T13:36:51.798Z,9.90
2023-04-09T13:39:18.246Z,10.20
2023-04-09T13:41:44.750Z,9.50
2023-04-09T13:44:11.758Z,9.40
2023-04-09T13:46:38.229Z,10.37
2023-04-09T13:49:04.694Z,9.70
2023-04-09T13:51:31.505Z,9.40
2023-04-09T13:53:57.965Z,9.43
2023-04-09T13:56:25.564Z,9.53
2023-04-09T13:58:52.230Z,9.57
2023-04-09T14:01:19.256Z,9.70
2023-04-09T14:03:45.988Z,9.97
2023-04-09T14:06:13.841Z,10.50
2023-04-09T14:08:40.325Z,10.57
2023-04-09T14:11:07.043Z,10.20
2023-04-09T14:13:33.583Z,9.77
2023-04-09T14:16:00.714Z,10.20
2023-04-09T14:18:27.164Z,9.67
2023-04-09T14:20:53.936Z,10.17
2023-04-09T14:23:20.365Z,10.10
2023-04-09T14:25:46.759Z,10.17
2023-04-09T14:28:13.173Z,10.43
2023-04-09T14:30:39.583Z,9.90
2023-04-09T14:33:06.608Z,10.03
2023-04-09T14:35:33.882Z,10.97
2023-04-09T14:38:04.186Z,11.03
2023-04-09T14:40:33.747Z,11.07
2023-04-09T14:43:00.281Z,11.07
2023-04-09T14:45:28.757Z,10.57
2023-04-09T14:47:56.554Z,11.00
2023-04-09T14:50:23.421Z,10.47
2023-04-09T14:52:49.889Z,10.50
2023-04-09T14:55:16.348Z,10.83
2023-04-09T14:57:42.946Z,10.70
2023-04-09T15:00:11.577Z,10.40
2023-04-09T15:02:41.550Z,10.80
2023-04-09T15:05:09.009Z,10.43
2023-04-09T15:07:35.520Z,10.03
2023-04-09T15:10:02.558Z,10.20
2023-04-09T15:12:30.844Z,10.80
2023-04-09T15:14:57.650Z,9.57
2023-04-09T15:17:24.949Z,9.17
2023-04-09T15:19:52.947Z,9.93
2023-04-09T15:22:19.534Z,9.60
2023-04-09T15:24:45.963Z,9.27
2023-04-09T15:27:12.707Z,9.37
2023-04-09T15:29:39.125Z,10.07
2023-04-09T15:32:05.901Z,10.27
2023-04-09T15:34:32.408Z,9.53
2023-04-09T15:36:58.775Z,9.30
2023-04-09T15:39:28.123Z,9.60
2023-04-09T15:41:58.383Z,10.23
2023-04-09T15:44:25.714Z,10.20
2023-04-09T15:46:52.481Z,9.60
2023-04-09T15:49:19.685Z,9.93
2023-04-09T15:51:46.564Z,10.27
2023-04-09T15:54:13.139Z,10.00
2023-04-09T15:56:40.468Z,9.87
2023-04-09T15:59:08.301Z,9.90
2023-04-09T16:01:36.101Z,10.17
2023-04-09T16:04:03.386Z,9.73
2023-04-09T16:06:29.926Z,9.73
2023-04-09T16:08:56.990Z,9.33
2023-04-09T16:11:24.421Z,10.27
2023-04-09T16:13:50.800Z,9.97
2023-04-09T16:16:17.310Z,9.00
2023-04-09T16:18:43.777Z,9.00
2023-04-09T16:21:10.856Z,9.50
2023-04-09T16:23:38.382Z,9.23
2023-04-09T16:26:05.369Z,9.23
2023-04-09T16:28:31.724Z,9.20
2023-04-09T16:30:59.313Z,9.00
2023-04-09T16:33:25.727Z,9.80
2023-04-09T16:35:52.291Z,10.40
2023-04-09T16:38:18.680Z,11.47
2023-04-09T16:40:45.406Z,13.00
2023-04-09T16:43:11.842Z,13.37
2023-04-09T16:45:38.258Z,11.93
2023-04-09T16:48:06.305Z,13.10
2023-04-09T16:50:32.973Z,12.07
2023-04-09T16:53:01.052Z,13.30
2023-04-09T16:55:27.401Z,11.40
2023-04-09T16:57:56.196Z,13.10
2023-04-09T17:00:22.681Z,12.30
2023-04-09T17:02:49.862Z,12.63
2023-04-09T17:05:17.945Z,12.17
2023-04-09T17:07:44.541Z,13.03
2023-04-09T17:10:11.388Z,13.10
2023-04-09T17:12:38.436Z,13.57
2023-04-09T17:15:05.194Z,13.17
2023-04-09T17:17:33.293Z,12.60
2023-04-09T17:20:01.509Z,12.70
2023-04-09T17:22:28.166Z,12.03
2023-04-09T17:24:54.537Z,13.30
2023-04-09T17:27:21.197Z,12.93
2023-04-09T17:29:47.611Z,13.23
2023-04-09T17:32:14.005Z,12.37
2023-04-09T17:34:40.375Z,12.40
2023-04-09T17:37:07.273Z,11.67
2023-04-09T17:39:33.683Z,11.80
2023-04-09T17:42:01.603Z,10.90
2023-04-09T17:44:28.048Z,10.70
2023-04-09T17:46:54.904Z,12.00
2023-04-09T17:49:22.386Z,13.03
2023-04-09T17:51:48.960Z,13.17
2023-04-09T17:54:15.419Z,12.77
2023-04-09T17:56:41.979Z,13.10
2023-04-09T17:59:08.444Z,12.10
2023-04-09T18:01:35.060Z,11.23
2023-04-09T18:04:02.066Z,11.60
2023-04-09T18:06:29.154Z,10.70
2023-04-09T18:08:55.781Z,11.10
2023-04-09T18:11:23.551Z,11.47
2023-04-09T18:13:51.080Z,10.30
2023-04-09T18:16:19.442Z,10.70
2023-04-09T18:18:46.859Z,10.97
2023-04-09T18:21:15.071Z,10.43
2023-04-09T18:23:42.655Z,10.57
2023-04-09T18:26:09.056Z,10.83
2023-04-09T18:28:35.693Z,10.30
2023-04-09T18:31:02.128Z,10.07
2023-04-09T18:33:28.682Z,10.30
2023-04-09T18:35:55.153Z,10.57
2023-04-09T18:38:21.604Z,9.83
2023-04-09T18:40:47.983Z,11.03
2023-04-09T18:43:14.381Z,10.13
2023-04-09T18:45:40.865Z,10.30
2023-04-09T18:48:09.209Z,10.37
2023-04-09T18:50:36.110Z,11.50
2023-04-09T18:53:03.759Z,10.47
2023-04-09T18:55:30.423Z,10.57
2023-04-09T18:57:57.455Z,10.43
2023-04-09T19:00:24.169Z,9.87
2023-04-09T19:02:51.097Z,9.80
2023-04-09T19:05:17.985Z,10.30
2023-04-09T19:07:44.469Z,9.80
2023-04-09T19:10:10.934Z,9.43
2023-04-09T19:12:37.748Z,9.73
2023-04-09T19:15:04.845Z,9.53
2023-04-09T19:17:32.043Z,9.63
2023-04-09T19:19:58.528Z,10.13
2023-04-09T19:22:24.906Z,9.70
2023-04-09T19:24:51.442Z,9.93
2023-04-09T19:27:18.614Z,10.17
2023-04-09T19:29:46.876Z,9.60
2023-04-09T19:32:13.354Z,10.20
2023-04-09T19:34:40.794Z,10.77
2023-04-09T19:37:07.527Z,10.00
2023-04-09T19:39:33.967Z,10.77
2023-04-09T19:42:00.609Z,10.17
2023-04-09T19:44:27.344Z,10.90
2023-04-09T19:46:53.734Z,11.53
2023-04-09T19:49:20.760Z,10.70
2023-04-09T19:51:47.119Z,10.00
2023-04-09T19:54:15.550Z,10.53
2023-04-09T19:56:42.464Z,10.57
2023-04-09T19:59:09.125Z,10.63
2023-04-09T20:01:36.087Z,11.37
2023-04-09T20:04:03.034Z,11.83
2023-04-09T20:06:30.721Z,10.73
2023-04-09T20:08:57.648Z,10.20
2023-04-09T20:11:24.036Z,11.00
2023-04-09T20:13:52.241Z,10.57
2023-04-09T20:16:18.767Z,10.50
2023-04-09T20:18:45.563Z,11.40
2023-04-09T20:21:14.230Z,11.20
2023-04-09T20:23:41.178Z,11.53
2023-04-09T20:26:11.072Z,11.87
2023-04-09T20:28:37.845Z,11.20
2023-04-09T20:31:04.408Z,11.77
2023-04-09T20:33:30.880Z,12.20
2023-04-09T20:35:57.446Z,11.50
2023-04-09T20:38:24.328Z,11.37
2023-04-09T20:40:52.585Z,12.13
2023-04-09T20:43:20.298Z,14.10
2023-04-09T20:45:47.433Z,12.93
2023-04-09T20:48:14.810Z,12.10
2023-04-09T20:50:41.290Z,13.83
2023-04-09T20:53:07.927Z,13.47
2023-04-09T20:55:35.950Z,13.23
2023-04-09T20:58:02.855Z,14.03
2023-04-09T21:00:29.722Z,12.90
2023-04-09T21:02:56.252Z,13.30
2023-04-09T21:05:24.165Z,13.50
2023-04-09T21:07:52.396Z,13.23
2023-04-09T21:10:18.908Z,12.47
2023-04-09T21:12:45.303Z,12.40
2023-04-09T21:15:11.760Z,12.63
2023-04-09T21:17:38.236Z,12.90
2023-04-09T21:20:05.039Z,12.47
2023-04-09T21:22:31.978Z,11.80
2023-04-09T21:24:58.772Z,11.83
2023-04-09T21:27:25.188Z,12.10
2023-04-09T21:29:52.001Z,11.37
2023-04-09T21:32:18.384Z,11.37
2023-04-09T21:34:44.818Z,12.93
2023-04-09T21:37:11.404Z,11.87
2023-04-09T21:39:38.434Z,12.00
2023-04-09T21:42:06.330Z,12.17
2023-04-09T21:44:33.900Z,12.77
2023-04-09T21:47:01.547Z,13.27
2023-04-09T21:49:27.924Z,13.50
2023-04-09T21:51:55.650Z,13.87
2023-04-09T21:54:22.318Z,12.50
2023-04-09T21:56:48.743Z,13.50
2023-04-09T21:59:15.751Z,14.23
2023-04-09T22:01:42.204Z,13.87
2023-04-09T22:04:08.851Z,13.33
2023-04-09T22:06:35.393Z,13.87
2023-04-09T22:09:02.644Z,13.73
2023-04-09T22:11:29.290Z,13.57
2023-04-09T22:13:56.793Z,14.00
2023-04-09T22:16:23.701Z,14.20
2023-04-09T22:18:50.269Z,13.67
2023-04-09T22:21:17.530Z,13.63
2023-04-09T22:23:43.957Z,14.90
2023-04-09T22:26:11.081Z,15.37
2023-04-09T22:28:38.407Z,14.73
2023-04-09T22:31:05.829Z,13.43
2023-04-09T22:33:32.445Z,15.60
2023-04-09T22:35:59.776Z,15.10
2023-04-09T22:38:26.507Z,14.33
2023-04-09T22:40:53.023Z,13.33
2023-04-09T22:43:19.653Z,13.43
2023-04-09T22:45:54.903Z,14.53
2023-04-09T22:48:22.029Z,14.03
2023-04-09T22:50:49.545Z,13.43
2023-04-09T22:53:18.907Z,13.87
2023-04-09T22:55:47.700Z,14.07
2023-04-09T22:58:14.518Z,15.60
2023-04-09T23:00:41.084Z,14.67
2023-04-09T23:03:07.786Z,14.83
2023-04-09T23:05:34.398Z,14.37
2023-04-09T23:08:01.032Z,13.00
2023-04-09T23:10:27.652Z,14.07
2023-04-09T23:12:54.043Z,13.53
2023-04-09T23:15:20.484Z,13.30
2023-04-09T23:17:46.885Z,14.03
2023-04-09T23:20:15.190Z,13.93
2023-04-09T23:22:42.041Z,12.90
2023-04-09T23:25:08.963Z,13.63
2023-04-09T23:27:35.416Z,13.53
2023-04-09T23:30:01.808Z,13.63
2023-04-09T23:32:28.233Z,13.33
2023-04-09T23:34:57.100Z,12.97
2023-04-09T23:37:23.524Z,14.13
2023-04-09T23:39:50.209Z,12.83
2023-04-09T23:42:16.585Z,14.07
2023-04-09T23:44:44.173Z,13.30
2023-04-09T23:47:11.021Z,13.57
2023-04-09T23:49:37.660Z,13.17
2023-04-09T23:52:04.113Z,12.97
2023-04-09T23:54:30.706Z,13.17
2023-04-09T23:57:00.118Z,12.87
2023-04-09T23:59:26.494Z,12.97
